sensor_id;sensor_type;location;lat;lon;timestamp;P1;durP1;ratioP1;P2;durP2;ratioP2
15952;SDS011;8075;47.766;8.846;2022-12-10T00:01:08;18.63;;;16.85;;
15952;SDS011;8075;47.766;8.846;2022-12-10T00:03:35;18.00;;;16.40;;
15952;SDS011;8075;47.766;8.846;2022-12-10T00:06:01;17.83;;;16.13;;
15952;SDS011;8075;47.766;8.846;2022-12-10T00:08:28;19.73;;;17.83;;
15952;SDS011;8075;47.766;8.846;2022-12-10T00:10:54;20.35;;;18.27;;
15952;SDS011;8075;47.766;8.846;2022-12-10T00:13:20;20.80;;;18.75;;
15952;SDS011;8075;47.766;8.846;2022-12-10T00:15:46;21.07;;;18.97;;
15952;SDS011;8075;47.766;8.846;2022-12-10T00:18:12;18.98;;;17.15;;
15952;SDS011;8075;47.766;8.846;2022-12-10T00:20:38;20.00;;;18.00;;
15952;SDS011;8075;47.766;8.846;2022-12-10T00:23:03;20.80;;;18.70;;
15952;SDS011;8075;47.766;8.846;2022-12-10T00:25:31;19.58;;;17.67;;
15952;SDS011;8075;47.766;8.846;2022-12-10T00:27:57;19.80;;;17.80;;
15952;SDS011;8075;47.766;8.846;2022-12-10T00:30:23;20.55;;;18.55;;
15952;SDS011;8075;47.766;8.846;2022-12-10T00:32:49;20.92;;;18.83;;
15952;SDS011;8075;47.766;8.846;2022-12-10T00:35:15;21.15;;;19.00;;
15952;SDS011;8075;47.766;8.846;2022-12-10T00:37:41;22.27;;;19.97;;
15952;SDS011;8075;47.766;8.846;2022-12-10T00:40:07;22.13;;;19.83;;
15952;SDS011;8075;47.766;8.846;2022-12-10T00:42:33;23.13;;;20.63;;
15952;SDS011;8075;47.766;8.846;2022-12-10T00:44:59;20.80;;;18.50;;
15952;SDS011;8075;47.766;8.846;2022-12-10T00:47:25;20.35;;;18.35;;
15952;SDS011;8075;47.766;8.846;2022-12-10T00:49:51;20.17;;;18.15;;
15952;SDS011;8075;47.766;8.846;2022-12-10T00:52:17;20.45;;;18.23;;
15952;SDS011;8075;47.766;8.846;2022-12-10T00:54:43;21.08;;;18.95;;
15952;SDS011;8075;47.766;8.846;2022-12-10T00:57:09;20.77;;;18.63;;
15952;SDS011;8075;47.766;8.846;2022-12-10T00:59:35;21.65;;;19.35;;
15952;SDS011;8075;47.766;8.846;2022-12-10T01:02:03;21.52;;;19.23;;
15952;SDS011;8075;47.766;8.846;2022-12-10T01:04:29;21.90;;;19.70;;
15952;SDS011;8075;47.766;8.846;2022-12-10T01:06:55;21.88;;;19.58;;
15952;SDS011;8075;47.766;8.846;2022-12-10T01:09:22;21.83;;;19.70;;
15952;SDS011;8075;47.766;8.846;2022-12-10T01:11:49;23.58;;;21.08;;
15952;SDS011;8075;47.766;8.846;2022-12-10T01:14:19;22.27;;;19.88;;
15952;SDS011;8075;47.766;8.846;2022-12-10T01:16:46;22.92;;;20.55;;
15952;SDS011;8075;47.766;8.846;2022-12-10T01:19:12;22.38;;;19.90;;
15952;SDS011;8075;47.766;8.846;2022-12-10T01:21:38;22.52;;;20.17;;
15952;SDS011;8075;47.766;8.846;2022-12-10T01:24:04;22.40;;;20.03;;
15952;SDS011;8075;47.766;8.846;2022-12-10T01:26:32;21.90;;;19.67;;
15952;SDS011;8075;47.766;8.846;2022-12-10T01:28:58;23.17;;;20.67;;
15952;SDS011;8075;47.766;8.846;2022-12-10T01:33:50;22.47;;;20.07;;
15952;SDS011;8075;47.766;8.846;2022-12-10T01:36:18;23.80;;;21.30;;
15952;SDS011;8075;47.766;8.846;2022-12-10T01:38:44;23.25;;;20.73;;
15952;SDS011;8075;47.766;8.846;2022-12-10T01:41:18;24.95;;;21.60;;
15952;SDS011;8075;47.766;8.846;2022-12-10T01:44:03;23.60;;;21.10;;
15952;SDS011;8075;47.766;8.846;2022-12-10T01:46:31;24.08;;;21.48;;
15952;SDS011;8075;47.766;8.846;2022-12-10T01:48:58;21.67;;;19.38;;
15952;SDS011;8075;47.766;8.846;2022-12-10T01:51:27;23.63;;;21.05;;
15952;SDS011;8075;47.766;8.846;2022-12-10T01:53:53;22.83;;;20.42;;
15952;SDS011;8075;47.766;8.846;2022-12-10T01:56:20;21.83;;;19.63;;
15952;SDS011;8075;47.766;8.846;2022-12-10T01:58:47;22.17;;;19.98;;
15952;SDS011;8075;47.766;8.846;2022-12-10T02:01:15;22.23;;;19.85;;
15952;SDS011;8075;47.766;8.846;2022-12-10T02:03:49;21.80;;;19.60;;
15952;SDS011;8075;47.766;8.846;2022-12-10T02:06:38;22.25;;;19.95;;
15952;SDS011;8075;47.766;8.846;2022-12-10T02:09:16;21.38;;;19.17;;
15952;SDS011;8075;47.766;8.846;2022-12-10T02:12:00;21.73;;;19.53;;
15952;SDS011;8075;47.766;8.846;2022-12-10T02:17:05;22.47;;;20.10;;
15952;SDS011;8075;47.766;8.846;2022-12-10T02:22:13;22.65;;;20.25;;
15952;SDS011;8075;47.766;8.846;2022-12-10T02:24:40;21.48;;;19.27;;
15952;SDS011;8075;47.766;8.846;2022-12-10T02:27:11;22.33;;;20.02;;
15952;SDS011;8075;47.766;8.846;2022-12-10T02:29:40;20.30;;;18.30;;
15952;SDS011;8075;47.766;8.846;2022-12-10T02:32:14;21.70;;;19.40;;
15952;SDS011;8075;47.766;8.846;2022-12-10T02:34:41;20.63;;;18.50;;
15952;SDS011;8075;47.766;8.846;2022-12-10T02:37:12;19.98;;;18.08;;
15952;SDS011;8075;47.766;8.846;2022-12-10T02:39:41;22.08;;;19.77;;
15952;SDS011;8075;47.766;8.846;2022-12-10T02:42:09;20.77;;;18.67;;
15952;SDS011;8075;47.766;8.846;2022-12-10T02:44:36;20.42;;;18.42;;
15952;SDS011;8075;47.766;8.846;2022-12-10T02:47:02;19.65;;;17.70;;
15952;SDS011;8075;47.766;8.846;2022-12-10T02:49:29;19.83;;;17.80;;
15952;SDS011;8075;47.766;8.846;2022-12-10T02:51:55;21.42;;;19.20;;
15952;SDS011;8075;47.766;8.846;2022-12-10T02:54:38;21.00;;;18.90;;
15952;SDS011;8075;47.766;8.846;2022-12-10T02:57:10;20.58;;;18.48;;
15952;SDS011;8075;47.766;8.846;2022-12-10T02:59:43;20.50;;;18.40;;
15952;SDS011;8075;47.766;8.846;2022-12-10T03:02:13;20.80;;;18.70;;
15952;SDS011;8075;47.766;8.846;2022-12-10T03:04:46;21.20;;;19.05;;
15952;SDS011;8075;47.766;8.846;2022-12-10T03:07:18;22.13;;;19.83;;
15952;SDS011;8075;47.766;8.846;2022-12-10T03:09:47;20.00;;;18.10;;
15952;SDS011;8075;47.766;8.846;2022-12-10T03:12:18;20.60;;;18.50;;
15952;SDS011;8075;47.766;8.846;2022-12-10T03:14:45;20.27;;;18.27;;
15952;SDS011;8075;47.766;8.846;2022-12-10T03:17:11;20.50;;;18.33;;
15952;SDS011;8075;47.766;8.846;2022-12-10T03:19:40;21.10;;;18.90;;
15952;SDS011;8075;47.766;8.846;2022-12-10T03:22:07;21.67;;;19.48;;
15952;SDS011;8075;47.766;8.846;2022-12-10T03:24:35;20.77;;;18.58;;
15952;SDS011;8075;47.766;8.846;2022-12-10T03:27:02;21.25;;;19.05;;
15952;SDS011;8075;47.766;8.846;2022-12-10T03:29:36;20.08;;;17.98;;
15952;SDS011;8075;47.766;8.846;2022-12-10T03:32:03;20.95;;;18.77;;
15952;SDS011;8075;47.766;8.846;2022-12-10T03:34:30;21.10;;;18.90;;
15952;SDS011;8075;47.766;8.846;2022-12-10T03:36:56;22.15;;;19.75;;
15952;SDS011;8075;47.766;8.846;2022-12-10T03:39:22;21.05;;;18.92;;
15952;SDS011;8075;47.766;8.846;2022-12-10T03:41:48;21.52;;;19.30;;
15952;SDS011;8075;47.766;8.846;2022-12-10T03:44:19;22.38;;;19.98;;
15952;SDS011;8075;47.766;8.846;2022-12-10T03:46:51;21.40;;;19.10;;
15952;SDS011;8075;47.766;8.846;2022-12-10T03:49:17;21.95;;;19.48;;
15952;SDS011;8075;47.766;8.846;2022-12-10T03:51:43;22.02;;;19.52;;
15952;SDS011;8075;47.766;8.846;2022-12-10T03:54:09;21.45;;;19.25;;
15952;SDS011;8075;47.766;8.846;2022-12-10T03:56:35;22.13;;;19.77;;
15952;SDS011;8075;47.766;8.846;2022-12-10T03:59:01;21.50;;;19.25;;
15952;SDS011;8075;47.766;8.846;2022-12-10T04:01:27;21.95;;;19.65;;
15952;SDS011;8075;47.766;8.846;2022-12-10T04:03:53;21.90;;;19.55;;
15952;SDS011;8075;47.766;8.846;2022-12-10T04:06:19;23.50;;;20.08;;
15952;SDS011;8075;47.766;8.846;2022-12-10T04:08:46;23.00;;;20.50;;
15952;SDS011;8075;47.766;8.846;2022-12-10T04:11:12;23.23;;;19.80;;
15952;SDS011;8075;47.766;8.846;2022-12-10T04:13:39;22.73;;;20.23;;
15952;SDS011;8075;47.766;8.846;2022-12-10T04:16:23;26.65;;;21.80;;
15952;SDS011;8075;47.766;8.846;2022-12-10T04:18:54;25.08;;;21.48;;
15952;SDS011;8075;47.766;8.846;2022-12-10T04:21:20;24.43;;;20.63;;
15952;SDS011;8075;47.766;8.846;2022-12-10T04:24:05;26.30;;;22.10;;
15952;SDS011;8075;47.766;8.846;2022-12-10T04:26:49;24.10;;;20.85;;
15952;SDS011;8075;47.766;8.846;2022-12-10T04:29:22;23.90;;;20.73;;
15952;SDS011;8075;47.766;8.846;2022-12-10T04:31:49;23.70;;;21.10;;
15952;SDS011;8075;47.766;8.846;2022-12-10T04:34:15;22.75;;;19.95;;
15952;SDS011;8075;47.766;8.846;2022-12-10T04:36:41;23.65;;;20.48;;
15952;SDS011;8075;47.766;8.846;2022-12-10T04:39:07;22.35;;;19.95;;
15952;SDS011;8075;47.766;8.846;2022-12-10T04:41:33;23.70;;;19.77;;
15952;SDS011;8075;47.766;8.846;2022-12-10T04:43:59;21.52;;;19.23;;
15952;SDS011;8075;47.766;8.846;2022-12-10T04:46:25;21.67;;;19.30;;
15952;SDS011;8075;47.766;8.846;2022-12-10T04:48:51;21.95;;;19.42;;
15952;SDS011;8075;47.766;8.846;2022-12-10T04:51:17;21.43;;;19.13;;
15952;SDS011;8075;47.766;8.846;2022-12-10T04:53:43;22.38;;;19.80;;
15952;SDS011;8075;47.766;8.846;2022-12-10T04:56:09;25.60;;;20.90;;
15952;SDS011;8075;47.766;8.846;2022-12-10T04:58:35;25.95;;;21.42;;
15952;SDS011;8075;47.766;8.846;2022-12-10T05:01:05;24.95;;;21.90;;
15952;SDS011;8075;47.766;8.846;2022-12-10T05:03:31;25.00;;;21.25;;
15952;SDS011;8075;47.766;8.846;2022-12-10T05:06:01;23.42;;;20.25;;
15952;SDS011;8075;47.766;8.846;2022-12-10T05:08:28;27.00;;;21.67;;
15952;SDS011;8075;47.766;8.846;2022-12-10T05:10:54;24.17;;;20.60;;
15952;SDS011;8075;47.766;8.846;2022-12-10T05:13:20;24.67;;;21.30;;
15952;SDS011;8075;47.766;8.846;2022-12-10T05:15:46;23.55;;;20.20;;
15952;SDS011;8075;47.766;8.846;2022-12-10T05:18:12;25.33;;;21.13;;
15952;SDS011;8075;47.766;8.846;2022-12-10T05:20:38;26.35;;;22.33;;
15952;SDS011;8075;47.766;8.846;2022-12-10T05:23:04;26.27;;;21.90;;
15952;SDS011;8075;47.766;8.846;2022-12-10T05:25:49;25.50;;;21.17;;
15952;SDS011;8075;47.766;8.846;2022-12-10T05:28:22;26.63;;;21.65;;
15952;SDS011;8075;47.766;8.846;2022-12-10T05:30:48;27.50;;;22.70;;
15952;SDS011;8075;47.766;8.846;2022-12-10T05:33:14;26.00;;;20.90;;
15952;SDS011;8075;47.766;8.846;2022-12-10T05:35:40;24.15;;;20.60;;
15952;SDS011;8075;47.766;8.846;2022-12-10T05:38:07;24.75;;;20.80;;
15952;SDS011;8075;47.766;8.846;2022-12-10T05:40:36;23.30;;;20.38;;
15952;SDS011;8075;47.766;8.846;2022-12-10T05:43:02;25.38;;;20.95;;
15952;SDS011;8075;47.766;8.846;2022-12-10T05:45:28;26.70;;;21.13;;
15952;SDS011;8075;47.766;8.846;2022-12-10T05:47:57;26.20;;;21.75;;
15952;SDS011;8075;47.766;8.846;2022-12-10T05:50:23;26.08;;;21.52;;
15952;SDS011;8075;47.766;8.846;2022-12-10T05:52:50;23.52;;;20.48;;
15952;SDS011;8075;47.766;8.846;2022-12-10T05:55:16;23.73;;;20.35;;
15952;SDS011;8075;47.766;8.846;2022-12-10T05:57:42;22.73;;;19.17;;
15952;SDS011;8075;47.766;8.846;2022-12-10T06:00:08;22.30;;;19.50;;
15952;SDS011;8075;47.766;8.846;2022-12-10T06:02:35;25.85;;;21.17;;
15952;SDS011;8075;47.766;8.846;2022-12-10T06:05:01;24.80;;;20.77;;
15952;SDS011;8075;47.766;8.846;2022-12-10T06:07:30;25.65;;;20.90;;
15952;SDS011;8075;47.766;8.846;2022-12-10T06:09:56;23.38;;;19.55;;
15952;SDS011;8075;47.766;8.846;2022-12-10T06:12:22;28.50;;;21.97;;
15952;SDS011;8075;47.766;8.846;2022-12-10T06:14:48;27.50;;;21.17;;
15952;SDS011;8075;47.766;8.846;2022-12-10T06:17:14;24.00;;;20.55;;
15952;SDS011;8075;47.766;8.846;2022-12-10T06:19:40;26.85;;;21.55;;
15952;SDS011;8075;47.766;8.846;2022-12-10T06:22:06;23.10;;;19.48;;
15952;SDS011;8075;47.766;8.846;2022-12-10T06:24:32;23.90;;;20.10;;
15952;SDS011;8075;47.766;8.846;2022-12-10T06:26:58;27.63;;;22.38;;
15952;SDS011;8075;47.766;8.846;2022-12-10T06:29:24;30.58;;;22.98;;
15952;SDS011;8075;47.766;8.846;2022-12-10T06:31:50;29.58;;;23.15;;
15952;SDS011;8075;47.766;8.846;2022-12-10T06:34:16;35.72;;;26.92;;
15952;SDS011;8075;47.766;8.846;2022-12-10T06:36:42;39.15;;;28.38;;
15952;SDS011;8075;47.766;8.846;2022-12-10T06:39:08;35.00;;;25.42;;
15952;SDS011;8075;47.766;8.846;2022-12-10T06:41:34;32.60;;;24.60;;
15952;SDS011;8075;47.766;8.846;2022-12-10T06:44:00;31.20;;;23.88;;
15952;SDS011;8075;47.766;8.846;2022-12-10T06:46:26;31.15;;;23.38;;
15952;SDS011;8075;47.766;8.846;2022-12-10T06:48:53;34.53;;;25.17;;
15952;SDS011;8075;47.766;8.846;2022-12-10T06:51:19;29.58;;;23.08;;
15952;SDS011;8075;47.766;8.846;2022-12-10T06:53:45;29.35;;;23.25;;
15952;SDS011;8075;47.766;8.846;2022-12-10T06:56:13;31.23;;;24.17;;
15952;SDS011;8075;47.766;8.846;2022-12-10T06:58:39;31.00;;;24.02;;
15952;SDS011;8075;47.766;8.846;2022-12-10T07:01:17;29.92;;;22.38;;
15952;SDS011;8075;47.766;8.846;2022-12-10T07:03:47;29.55;;;22.23;;
15952;SDS011;8075;47.766;8.846;2022-12-10T07:06:13;29.05;;;22.80;;
15952;SDS011;8075;47.766;8.846;2022-12-10T07:08:39;30.90;;;23.27;;
15952;SDS011;8075;47.766;8.846;2022-12-10T07:11:15;30.67;;;23.35;;
15952;SDS011;8075;47.766;8.846;2022-12-10T07:13:41;28.27;;;22.52;;
15952;SDS011;8075;47.766;8.846;2022-12-10T07:16:12;30.70;;;22.90;;
15952;SDS011;8075;47.766;8.846;2022-12-10T07:18:38;29.47;;;23.00;;
15952;SDS011;8075;47.766;8.846;2022-12-10T07:21:23;27.23;;;21.48;;
15952;SDS011;8075;47.766;8.846;2022-12-10T07:23:53;27.65;;;21.88;;
15952;SDS011;8075;47.766;8.846;2022-12-10T07:26:21;31.20;;;24.60;;
15952;SDS011;8075;47.766;8.846;2022-12-10T07:28:47;31.58;;;25.48;;
15952;SDS011;8075;47.766;8.846;2022-12-10T07:31:13;29.95;;;23.40;;
15952;SDS011;8075;47.766;8.846;2022-12-10T07:33:39;30.15;;;23.20;;
15952;SDS011;8075;47.766;8.846;2022-12-10T07:36:05;29.02;;;22.13;;
15952;SDS011;8075;47.766;8.846;2022-12-10T07:38:32;29.00;;;22.17;;
15952;SDS011;8075;47.766;8.846;2022-12-10T07:40:58;29.48;;;22.48;;
15952;SDS011;8075;47.766;8.846;2022-12-10T07:43:24;33.40;;;24.75;;
15952;SDS011;8075;47.766;8.846;2022-12-10T07:45:50;33.10;;;23.80;;
15952;SDS011;8075;47.766;8.846;2022-12-10T07:48:16;31.65;;;24.13;;
15952;SDS011;8075;47.766;8.846;2022-12-10T07:50:42;33.03;;;23.95;;
15952;SDS011;8075;47.766;8.846;2022-12-10T07:53:08;32.53;;;24.15;;
15952;SDS011;8075;47.766;8.846;2022-12-10T07:55:34;33.20;;;24.05;;
15952;SDS011;8075;47.766;8.846;2022-12-10T07:58:00;31.33;;;23.45;;
15952;SDS011;8075;47.766;8.846;2022-12-10T08:00:26;37.07;;;27.07;;
15952;SDS011;8075;47.766;8.846;2022-12-10T08:02:52;44.45;;;32.72;;
15952;SDS011;8075;47.766;8.846;2022-12-10T08:05:18;39.53;;;29.13;;
15952;SDS011;8075;47.766;8.846;2022-12-10T08:07:44;43.72;;;31.98;;
15952;SDS011;8075;47.766;8.846;2022-12-10T08:10:10;36.90;;;27.92;;
15952;SDS011;8075;47.766;8.846;2022-12-10T08:12:36;37.75;;;26.92;;
15952;SDS011;8075;47.766;8.846;2022-12-10T08:15:02;35.45;;;26.40;;
15952;SDS011;8075;47.766;8.846;2022-12-10T08:17:28;33.53;;;25.15;;
15952;SDS011;8075;47.766;8.846;2022-12-10T08:19:54;33.72;;;24.83;;
15952;SDS011;8075;47.766;8.846;2022-12-10T08:22:20;32.80;;;23.88;;
15952;SDS011;8075;47.766;8.846;2022-12-10T08:24:46;34.05;;;24.63;;
15952;SDS011;8075;47.766;8.846;2022-12-10T08:27:12;33.33;;;24.27;;
15952;SDS011;8075;47.766;8.846;2022-12-10T08:29:38;31.77;;;23.65;;
15952;SDS011;8075;47.766;8.846;2022-12-10T08:32:04;29.75;;;23.00;;
15952;SDS011;8075;47.766;8.846;2022-12-10T08:34:30;32.90;;;24.48;;
15952;SDS011;8075;47.766;8.846;2022-12-10T08:36:56;30.30;;;23.90;;
15952;SDS011;8075;47.766;8.846;2022-12-10T08:39:22;32.35;;;25.33;;
15952;SDS011;8075;47.766;8.846;2022-12-10T08:41:48;47.53;;;35.00;;
15952;SDS011;8075;47.766;8.846;2022-12-10T08:44:14;31.48;;;24.20;;
15952;SDS011;8075;47.766;8.846;2022-12-10T08:46:40;40.03;;;29.70;;
15952;SDS011;8075;47.766;8.846;2022-12-10T08:49:06;34.40;;;26.10;;
15952;SDS011;8075;47.766;8.846;2022-12-10T08:51:32;32.87;;;24.57;;
15952;SDS011;8075;47.766;8.846;2022-12-10T08:53:59;31.63;;;24.05;;
15952;SDS011;8075;47.766;8.846;2022-12-10T08:56:25;30.77;;;23.87;;
15952;SDS011;8075;47.766;8.846;2022-12-10T08:58:51;32.35;;;24.15;;
15952;SDS011;8075;47.766;8.846;2022-12-10T09:01:17;33.33;;;25.13;;
15952;SDS011;8075;47.766;8.846;2022-12-10T09:03:43;33.07;;;24.93;;
15952;SDS011;8075;47.766;8.846;2022-12-10T09:06:11;34.00;;;25.33;;
15952;SDS011;8075;47.766;8.846;2022-12-10T09:08:37;32.45;;;24.52;;
15952;SDS011;8075;47.766;8.846;2022-12-10T09:11:07;32.38;;;24.80;;
15952;SDS011;8075;47.766;8.846;2022-12-10T09:13:34;31.65;;;22.95;;
15952;SDS011;8075;47.766;8.846;2022-12-10T09:16:00;29.70;;;21.80;;
15952;SDS011;8075;47.766;8.846;2022-12-10T09:18:26;31.00;;;22.92;;
15952;SDS011;8075;47.766;8.846;2022-12-10T09:20:52;29.60;;;22.55;;
15952;SDS011;8075;47.766;8.846;2022-12-10T09:23:18;28.13;;;21.50;;
15952;SDS011;8075;47.766;8.846;2022-12-10T09:25:44;21.42;;;17.23;;
15952;SDS011;8075;47.766;8.846;2022-12-10T09:28:10;26.35;;;20.75;;
15952;SDS011;8075;47.766;8.846;2022-12-10T09:30:36;18.70;;;16.70;;
15952;SDS011;8075;47.766;8.846;2022-12-10T09:33:02;18.00;;;16.03;;
15952;SDS011;8075;47.766;8.846;2022-12-10T09:35:28;19.50;;;16.45;;
15952;SDS011;8075;47.766;8.846;2022-12-10T09:37:54;21.63;;;17.87;;
15952;SDS011;8075;47.766;8.846;2022-12-10T09:40:26;18.15;;;16.23;;
15952;SDS011;8075;47.766;8.846;2022-12-10T09:43:12;17.60;;;15.80;;
15952;SDS011;8075;47.766;8.846;2022-12-10T09:45:49;17.55;;;15.35;;
15952;SDS011;8075;47.766;8.846;2022-12-10T09:51:10;19.90;;;17.73;;
15952;SDS011;8075;47.766;8.846;2022-12-10T09:53:38;18.25;;;16.17;;
15952;SDS011;8075;47.766;8.846;2022-12-10T09:56:05;17.52;;;15.13;;
15952;SDS011;8075;47.766;8.846;2022-12-10T09:58:33;18.33;;;15.85;;
15952;SDS011;8075;47.766;8.846;2022-12-10T10:01:01;18.75;;;16.52;;
15952;SDS011;8075;47.766;8.846;2022-12-10T10:03:27;19.00;;;16.98;;
15952;SDS011;8075;47.766;8.846;2022-12-10T10:05:55;18.50;;;16.48;;
15952;SDS011;8075;47.766;8.846;2022-12-10T10:10:50;18.25;;;16.35;;
15952;SDS011;8075;47.766;8.846;2022-12-10T10:13:19;18.77;;;16.77;;
15952;SDS011;8075;47.766;8.846;2022-12-10T10:15:46;18.42;;;16.42;;
15952;SDS011;8075;47.766;8.846;2022-12-10T10:20:39;19.05;;;17.05;;
15952;SDS011;8075;47.766;8.846;2022-12-10T10:23:05;19.05;;;17.05;;
15952;SDS011;8075;47.766;8.846;2022-12-10T10:25:31;22.80;;;18.25;;
15952;SDS011;8075;47.766;8.846;2022-12-10T10:27:57;17.73;;;15.90;;
15952;SDS011;8075;47.766;8.846;2022-12-10T10:30:23;15.98;;;14.23;;
15952;SDS011;8075;47.766;8.846;2022-12-10T10:32:50;17.83;;;15.17;;
15952;SDS011;8075;47.766;8.846;2022-12-10T10:35:41;15.77;;;14.15;;
15952;SDS011;8075;47.766;8.846;2022-12-10T10:38:06;16.60;;;14.63;;
15952;SDS011;8075;47.766;8.846;2022-12-10T10:40:42;16.25;;;14.55;;
15952;SDS011;8075;47.766;8.846;2022-12-10T10:43:14;17.10;;;15.30;;
15952;SDS011;8075;47.766;8.846;2022-12-10T10:45:47;15.40;;;13.80;;
15952;SDS011;8075;47.766;8.846;2022-12-10T10:48:15;16.45;;;14.75;;
15952;SDS011;8075;47.766;8.846;2022-12-10T10:50:45;16.30;;;14.60;;
15952;SDS011;8075;47.766;8.846;2022-12-10T10:53:30;17.33;;;15.20;;
15952;SDS011;8075;47.766;8.846;2022-12-10T10:56:04;16.15;;;14.45;;
15952;SDS011;8075;47.766;8.846;2022-12-10T10:58:31;29.35;;;23.10;;
15952;SDS011;8075;47.766;8.846;2022-12-10T11:00:59;17.27;;;15.48;;
15952;SDS011;8075;47.766;8.846;2022-12-10T11:03:26;15.48;;;13.77;;
15952;SDS011;8075;47.766;8.846;2022-12-10T11:05:53;18.08;;;16.20;;
15952;SDS011;8075;47.766;8.846;2022-12-10T11:08:20;18.00;;;15.70;;
15952;SDS011;8075;47.766;8.846;2022-12-10T11:10:56;16.45;;;14.75;;
15952;SDS011;8075;47.766;8.846;2022-12-10T11:13:27;15.88;;;14.25;;
15952;SDS011;8075;47.766;8.846;2022-12-10T11:18:29;17.42;;;15.63;;
15952;SDS011;8075;47.766;8.846;2022-12-10T11:20:56;20.37;;;17.20;;
15952;SDS011;8075;47.766;8.846;2022-12-10T11:23:23;21.33;;;18.17;;
15952;SDS011;8075;47.766;8.846;2022-12-10T11:30:46;21.58;;;18.02;;
15952;SDS011;8075;47.766;8.846;2022-12-10T11:33:22;23.97;;;19.30;;
15952;SDS011;8075;47.766;8.846;2022-12-10T11:38:29;15.17;;;13.67;;
15952;SDS011;8075;47.766;8.846;2022-12-10T11:46:27;16.17;;;14.48;;
15952;SDS011;8075;47.766;8.846;2022-12-10T11:56:40;16.38;;;14.77;;
15952;SDS011;8075;47.766;8.846;2022-12-10T12:04:30;17.58;;;15.32;;
15952;SDS011;8075;47.766;8.846;2022-12-10T12:15:00;13.63;;;12.32;;
15952;SDS011;8075;47.766;8.846;2022-12-10T12:17:26;12.85;;;11.55;;
15952;SDS011;8075;47.766;8.846;2022-12-10T12:20:04;13.30;;;11.90;;
15952;SDS011;8075;47.766;8.846;2022-12-10T12:22:35;12.87;;;11.77;;
15952;SDS011;8075;47.766;8.846;2022-12-10T12:25:15;12.35;;;11.15;;
15952;SDS011;8075;47.766;8.846;2022-12-10T12:27:43;10.93;;;9.82;;
15952;SDS011;8075;47.766;8.846;2022-12-10T12:30:20;11.63;;;10.52;;
15952;SDS011;8075;47.766;8.846;2022-12-10T12:32:55;10.95;;;9.95;;
15952;SDS011;8075;47.766;8.846;2022-12-10T12:37:56;11.15;;;10.15;;
15952;SDS011;8075;47.766;8.846;2022-12-10T12:42:54;11.10;;;10.10;;
15952;SDS011;8075;47.766;8.846;2022-12-10T12:45:24;10.50;;;9.60;;
15952;SDS011;8075;47.766;8.846;2022-12-10T12:50:42;11.27;;;10.27;;
15952;SDS011;8075;47.766;8.846;2022-12-10T12:53:09;11.85;;;10.75;;
15952;SDS011;8075;47.766;8.846;2022-12-10T13:01:23;11.05;;;10.05;;
15952;SDS011;8075;47.766;8.846;2022-12-10T13:03:51;11.68;;;10.50;;
15952;SDS011;8075;47.766;8.846;2022-12-10T13:06:28;11.50;;;10.50;;
15952;SDS011;8075;47.766;8.846;2022-12-10T13:11:31;11.35;;;10.35;;
15952;SDS011;8075;47.766;8.846;2022-12-10T13:24:17;12.10;;;10.90;;
15952;SDS011;8075;47.766;8.846;2022-12-10T13:29:28;11.73;;;10.52;;
15952;SDS011;8075;47.766;8.846;2022-12-10T13:31:56;11.90;;;10.80;;
15952;SDS011;8075;47.766;8.846;2022-12-10T13:34:23;13.00;;;11.73;;
15952;SDS011;8075;47.766;8.846;2022-12-10T13:39:32;13.43;;;12.23;;
15952;SDS011;8075;47.766;8.846;2022-12-10T13:50:06;13.93;;;12.18;;
15952;SDS011;8075;47.766;8.846;2022-12-10T13:52:46;13.23;;;11.82;;
15952;SDS011;8075;47.766;8.846;2022-12-10T14:00:49;13.38;;;12.07;;
15952;SDS011;8075;47.766;8.846;2022-12-10T14:05:46;13.05;;;11.88;;
15952;SDS011;8075;47.766;8.846;2022-12-10T14:08:16;13.65;;;12.35;;
15952;SDS011;8075;47.766;8.846;2022-12-10T14:10:43;13.40;;;12.10;;
15952;SDS011;8075;47.766;8.846;2022-12-10T14:13:11;11.98;;;10.98;;
15952;SDS011;8075;47.766;8.846;2022-12-10T14:15:37;42.75;;;23.05;;
15952;SDS011;8075;47.766;8.846;2022-12-10T14:18:09;14.17;;;12.70;;
15952;SDS011;8075;47.766;8.846;2022-12-10T14:20:36;13.30;;;12.00;;
15952;SDS011;8075;47.766;8.846;2022-12-10T14:23:24;13.85;;;12.45;;
15952;SDS011;8075;47.766;8.846;2022-12-10T14:26:03;16.52;;;13.35;;
15952;SDS011;8075;47.766;8.846;2022-12-10T14:28:30;12.20;;;11.10;;
15952;SDS011;8075;47.766;8.846;2022-12-10T14:30:58;15.02;;;13.18;;
15952;SDS011;8075;47.766;8.846;2022-12-10T14:33:24;12.30;;;11.10;;
15952;SDS011;8075;47.766;8.846;2022-12-10T14:35:51;11.87;;;10.73;;
15952;SDS011;8075;47.766;8.846;2022-12-10T14:38:27;14.40;;;12.97;;
15952;SDS011;8075;47.766;8.846;2022-12-10T14:40:55;14.65;;;13.18;;
15952;SDS011;8075;47.766;8.846;2022-12-10T14:43:22;15.00;;;13.50;;
15952;SDS011;8075;47.766;8.846;2022-12-10T14:45:51;15.23;;;13.60;;
15952;SDS011;8075;47.766;8.846;2022-12-10T14:48:18;15.13;;;13.63;;
15952;SDS011;8075;47.766;8.846;2022-12-10T14:50:45;14.93;;;13.32;;
15952;SDS011;8075;47.766;8.846;2022-12-10T14:53:14;13.93;;;12.63;;
15952;SDS011;8075;47.766;8.846;2022-12-10T14:55:40;15.25;;;13.77;;
15952;SDS011;8075;47.766;8.846;2022-12-10T14:58:06;15.30;;;13.82;;
15952;SDS011;8075;47.766;8.846;2022-12-10T15:00:38;16.80;;;15.02;;
15952;SDS011;8075;47.766;8.846;2022-12-10T15:03:09;15.05;;;13.60;;
15952;SDS011;8075;47.766;8.846;2022-12-10T15:05:36;14.43;;;12.95;;
15952;SDS011;8075;47.766;8.846;2022-12-10T15:08:06;14.23;;;12.93;;
15952;SDS011;8075;47.766;8.846;2022-12-10T15:10:40;14.60;;;13.20;;
15952;SDS011;8075;47.766;8.846;2022-12-10T15:13:07;13.95;;;12.63;;
15952;SDS011;8075;47.766;8.846;2022-12-10T15:15:38;13.75;;;12.52;;
15952;SDS011;8075;47.766;8.846;2022-12-10T15:20:37;18.02;;;15.85;;
15952;SDS011;8075;47.766;8.846;2022-12-10T15:23:11;18.75;;;16.83;;
15952;SDS011;8075;47.766;8.846;2022-12-10T15:25:51;17.33;;;15.63;;
15952;SDS011;8075;47.766;8.846;2022-12-10T15:28:22;16.85;;;15.15;;
15952;SDS011;8075;47.766;8.846;2022-12-10T15:30:49;16.55;;;14.85;;
15952;SDS011;8075;47.766;8.846;2022-12-10T15:35:48;16.40;;;14.80;;
15952;SDS011;8075;47.766;8.846;2022-12-10T15:38:14;18.67;;;16.73;;
15952;SDS011;8075;47.766;8.846;2022-12-10T15:40:41;16.25;;;14.55;;
15952;SDS011;8075;47.766;8.846;2022-12-10T15:43:24;16.13;;;14.48;;
15952;SDS011;8075;47.766;8.846;2022-12-10T15:45:50;15.18;;;13.73;;
15952;SDS011;8075;47.766;8.846;2022-12-10T15:48:16;16.08;;;14.48;;
15952;SDS011;8075;47.766;8.846;2022-12-10T15:50:43;16.67;;;14.95;;
15952;SDS011;8075;47.766;8.846;2022-12-10T15:53:14;17.50;;;14.77;;
15952;SDS011;8075;47.766;8.846;2022-12-10T15:55:42;16.25;;;14.57;;
15952;SDS011;8075;47.766;8.846;2022-12-10T15:58:11;17.77;;;15.65;;
15952;SDS011;8075;47.766;8.846;2022-12-10T16:00:37;17.10;;;15.30;;
15952;SDS011;8075;47.766;8.846;2022-12-10T16:03:08;16.67;;;14.77;;
15952;SDS011;8075;47.766;8.846;2022-12-10T16:05:36;15.40;;;13.88;;
15952;SDS011;8075;47.766;8.846;2022-12-10T16:08:09;15.25;;;13.75;;
15952;SDS011;8075;47.766;8.846;2022-12-10T16:10:37;16.23;;;14.52;;
15952;SDS011;8075;47.766;8.846;2022-12-10T16:13:04;15.48;;;13.98;;
15952;SDS011;8075;47.766;8.846;2022-12-10T16:15:35;14.88;;;13.48;;
15952;SDS011;8075;47.766;8.846;2022-12-10T16:18:03;17.08;;;15.38;;
15952;SDS011;8075;47.766;8.846;2022-12-10T16:20:30;16.60;;;14.90;;
15952;SDS011;8075;47.766;8.846;2022-12-10T16:22:57;18.70;;;16.70;;
15952;SDS011;8075;47.766;8.846;2022-12-10T16:25:24;17.92;;;16.08;;
15952;SDS011;8075;47.766;8.846;2022-12-10T16:27:50;17.40;;;15.38;;